Time;durP1;ratioP1;P1;durP2;ratioP2;P2;SDS_P1;SDS_P2;PMS_P1;PMS_P2;Temp;Humidity;BMP_temperature;BMP_pressure;BME280_temperature;BME280_humidity;BME280_pressure;Samples;Min_cycle;Max_cycle;Signal;HPM_P1;HPM_P2
2022/05/03 00:01:52;;;;;;;5.50;2.80;;;;;;;;;;5016344;28;20211;-59
2022/05/03 00:04:21;;;;;;;4.43;2.50;;;;;;;;;;5036587;28;20614;-59
2022/05/03 00:06:48;;;;;;;5.00;2.50;;;;;;;;;;5024428;28;20216;-59
2022/05/03 00:09:16;;;;;;;4.07;2.67;;;;;;;;;;5024074;28;20360;-59
2022/05/03 00:11:45;;;;;;;5.35;2.78;;;;;;;;;;5029859;28;20648;-59
2022/05/03 00:14:19;;;;;;;4.05;2.67;;;;;;;;;;5011706;28;20369;-59
2022/05/03 00:16:44;;;;;;;4.38;2.65;;;;;;;;;;5015203;28;20223;-59
2022/05/03 00:19:10;;;;;;;6.20;3.22;;;;;;;;;;5017912;28;20215;-59
2022/05/03 00:21:36;;;;;;;6.40;3.00;;;;;;;;;;5022429;28;20748;-59
2022/05/03 00:24:01;;;;;;;6.53;2.90;;;;;;;;;;5023503;28;20223;-57
2022/05/03 00:26:28;;;;;;;5.38;3.13;;;;;;;;;;5022026;28;20219;-59
2022/05/03 00:28:53;;;;;;;4.95;3.20;;;;;;;;;;5024324;28;20693;-59
2022/05/03 00:31:18;;;;;;;5.25;2.90;;;;;;;;;;5023643;28;20250;-59
2022/05/03 00:33:43;;;;;;;6.47;3.50;;;;;;;;;;5038740;28;20215;-59
2022/05/03 00:36:09;;;;;;;5.40;3.30;;;;;;;;;;5015073;28;20542;-59
2022/05/03 00:38:34;;;;;;;5.93;3.40;;;;;;;;;;5014721;28;20297;-59
2022/05/03 00:41:00;;;;;;;5.47;3.47;;;;;;;;;;5015434;28;20215;-59
2022/05/03 00:43:30;;;;;;;7.80;3.75;;;;;;;;;;5021323;28;20571;-59
2022/05/03 00:45:58;;;;;;;6.28;3.80;;;;;;;;;;5004211;28;20306;-59
2022/05/03 00:48:27;;;;;;;6.18;3.33;;;;;;;;;;5021056;28;20395;-59
2022/05/03 00:51:06;;;;;;;5.82;3.78;;;;;;;;;;5020890;28;20215;-59
2022/05/03 00:53:32;;;;;;;7.65;3.67;;;;;;;;;;5045219;28;20263;-59
2022/05/03 00:55:57;;;;;;;7.18;4.53;;;;;;;;;;5026370;28;20285;-59
2022/05/03 00:58:28;;;;;;;7.00;3.80;;;;;;;;;;5020275;28;20805;-59
2022/05/03 01:01:00;;;;;;;6.68;3.95;;;;;;;;;;5035400;28;20230;-59
2022/05/03 01:03:27;;;;;;;6.60;3.95;;;;;;;;;;5037904;28;20302;-59
2022/05/03 01:06:07;;;;;;;6.03;3.80;;;;;;;;;;5018446;28;20280;-59
2022/05/03 01:08:32;;;;;;;6.07;3.92;;;;;;;;;;5011629;28;20215;-59
2022/05/03 01:11:04;;;;;;;6.95;4.00;;;;;;;;;;5025671;28;20219;-59
2022/05/03 01:13:30;;;;;;;8.35;4.00;;;;;;;;;;5037699;28;20210;-59
2022/05/03 01:15:59;;;;;;;7.03;4.45;;;;;;;;;;5014158;28;21674;-59
2022/05/03 01:18:26;;;;;;;7.38;4.13;;;;;;;;;;5009439;28;20514;-59
2022/05/03 01:20:57;;;;;;;7.93;4.30;;;;;;;;;;5037475;28;20222;-59
2022/05/03 01:23:31;;;;;;;6.95;4.43;;;;;;;;;;5036506;28;20207;-59
2022/05/03 01:26:03;;;;;;;8.57;4.47;;;;;;;;;;5035254;28;20223;-59
2022/05/03 01:28:30;;;;;;;6.75;4.50;;;;;;;;;;5007859;28;20215;-59
2022/05/03 01:30:57;;;;;;;7.45;4.28;;;;;;;;;;5044480;28;20215;-59
2022/05/03 01:33:30;;;;;;;8.13;4.72;;;;;;;;;;5026824;28;20670;-59
2022/05/03 01:35:56;;;;;;;8.05;4.72;;;;;;;;;;5042866;28;20215;-59
2022/05/03 01:38:28;;;;;;;8.80;4.78;;;;;;;;;;5025915;28;20285;-59
2022/05/03 01:40:58;;;;;;;6.63;4.15;;;;;;;;;;5027314;28;20207;-59
2022/05/03 01:43:27;;;;;;;8.15;4.90;;;;;;;;;;5008934;28;20576;-59
2022/05/03 01:46:04;;;;;;;9.10;5.20;;;;;;;;;;5036845;28;20825;-59
2022/05/03 01:50:18;;;;;;;7.55;4.45;;;;;;;;;;5022720;28;20433;-59
2022/05/03 01:51:25;;;;;;;6.63;4.30;;;;;;;;;;5043197;28;20211;-59
2022/05/03 01:53:52;;;;;;;8.80;4.43;;;;;;;;;;5045029;28;20257;-59
2022/05/03 01:56:25;;;;;;;7.30;5.10;;;;;;;;;;5042156;28;20215;-59
2022/05/03 01:58:50;;;;;;;6.68;3.85;;;;;;;;;;5024893;28;20204;-59
2022/05/03 02:01:21;;;;;;;6.80;4.50;;;;;;;;;;5024691;28;20219;-58
2022/05/03 02:03:48;;;;;;;7.20;4.57;;;;;;;;;;5044267;28;20282;-59
2022/05/03 02:06:14;;;;;;;8.65;4.18;;;;;;;;;;5035719;28;20218;-59
2022/05/03 02:08:44;;;;;;;7.22;4.43;;;;;;;;;;5020741;28;20251;-59
2022/05/03 02:11:13;;;;;;;6.68;4.25;;;;;;;;;;5002326;28;20243;-59
2022/05/03 02:16:29;;;;;;;8.55;4.88;;;;;;;;;;5010666;28;20227;-59
2022/05/03 02:18:59;;;;;;;6.78;4.30;;;;;;;;;;5025627;28;20758;-59
2022/05/03 02:21:25;;;;;;;8.63;4.88;;;;;;;;;;5025929;28;20485;-59
2022/05/03 02:23:51;;;;;;;11.10;5.13;;;;;;;;;;5044508;28;20213;-59
2022/05/03 02:26:25;;;;;;;8.88;5.68;;;;;;;;;;5025023;28;20226;-59
2022/05/03 02:28:53;;;;;;;6.40;4.53;;;;;;;;;;5019113;28;20241;-59
2022/05/03 02:31:21;;;;;;;8.35;4.97;;;;;;;;;;5017067;28;20869;-59
2022/05/03 02:33:48;;;;;;;9.52;5.40;;;;;;;;;;5036390;28;20218;-59
2022/05/03 02:36:14;;;;;;;8.43;5.45;;;;;;;;;;5043117;28;20329;-58
2022/05/03 02:38:43;;;;;;;9.30;5.47;;;;;;;;;;5027394;28;20229;-59
2022/05/03 02:41:08;;;;;;;10.13;5.68;;;;;;;;;;5023238;28;20214;-59
2022/05/03 02:43:33;;;;;;;10.20;6.03;;;;;;;;;;5006655;28;20215;-59
2022/05/03 02:46:18;;;;;;;8.55;5.88;;;;;;;;;;5023827;28;20216;-59
2022/05/03 02:48:53;;;;;;;10.45;5.82;;;;;;;;;;5025995;28;20314;-59
2022/05/03 02:51:18;;;;;;;8.13;5.40;;;;;;;;;;4999138;28;20292;-59
2022/05/03 02:53:48;;;;;;;10.70;5.97;;;;;;;;;;5015428;28;20243;-59
2022/05/03 02:56:21;;;;;;;8.65;5.72;;;;;;;;;;5035705;28;20223;-60
2022/05/03 02:59:04;;;;;;;8.35;5.55;;;;;;;;;;5006069;28;20287;-60
2022/05/03 03:01:48;;;;;;;9.32;5.97;;;;;;;;;;5017300;28;20214;-60
2022/05/03 03:04:19;;;;;;;9.73;5.95;;;;;;;;;;5043160;28;20698;-60
2022/05/03 03:06:44;;;;;;;9.73;6.82;;;;;;;;;;5042587;28;20211;-60
2022/05/03 03:09:12;;;;;;;10.18;6.53;;;;;;;;;;5005586;28;20218;-60
2022/05/03 03:11:48;;;;;;;9.63;5.95;;;;;;;;;;5035591;28;20220;-60
2022/05/03 03:14:20;;;;;;;10.57;6.38;;;;;;;;;;5016517;28;20222;-60
2022/05/03 03:16:52;;;;;;;11.18;6.30;;;;;;;;;;5014545;28;20239;-60
2022/05/03 03:19:20;;;;;;;12.00;7.13;;;;;;;;;;5016882;28;20247;-60
2022/05/03 03:21:46;;;;;;;10.95;6.63;;;;;;;;;;5005593;28;20301;-60
2022/05/03 03:24:11;;;;;;;10.45;6.45;;;;;;;;;;5023310;28;20220;-60
2022/05/03 03:26:36;;;;;;;10.38;6.18;;;;;;;;;;5005794;28;20211;-60
2022/05/03 03:29:02;;;;;;;11.93;7.20;;;;;;;;;;5005886;28;20223;-60
2022/05/03 03:31:27;;;;;;;11.63;6.68;;;;;;;;;;5008263;28;20600;-60
2022/05/03 03:33:53;;;;;;;12.80;6.18;;;;;;;;;;5043173;28;20211;-60
2022/05/03 03:36:18;;;;;;;10.85;6.63;;;;;;;;;;5035186;28;20207;-60
2022/05/03 03:38:44;;;;;;;10.02;6.22;;;;;;;;;;5001112;28;20268;-60
2022/05/03 03:41:09;;;;;;;9.80;6.25;;;;;;;;;;4997761;28;20259;-59
2022/05/03 03:43:34;;;;;;;9.20;6.35;;;;;;;;;;5039400;28;20306;-59
2022/05/03 03:46:00;;;;;;;10.63;6.53;;;;;;;;;;5024809;28;20211;-60
2022/05/03 03:48:25;;;;;;;11.70;7.10;;;;;;;;;;5010631;28;20216;-60
2022/05/03 03:50:50;;;;;;;12.32;6.90;;;;;;;;;;5022953;28;20686;-60
2022/05/03 03:53:16;;;;;;;9.95;6.47;;;;;;;;;;5022459;28;20228;-60
2022/05/03 03:55:42;;;;;;;9.35;5.60;;;;;;;;;;5023339;28;20208;-59
2022/05/03 03:58:07;;;;;;;12.60;6.32;;;;;;;;;;5002023;28;20231;-59
2022/05/03 04:00:32;;;;;;;9.95;6.70;;;;;;;;;;5012761;28;20212;-60
2022/05/03 04:02:58;;;;;;;11.25;6.60;;;;;;;;;;5015089;28;20890;-60
2022/05/03 04:05:23;;;;;;;10.95;7.32;;;;;;;;;;5036411;28;20213;-60
2022/05/03 04:07:48;;;;;;;9.73;6.60;;;;;;;;;;5032724;28;20298;-60
2022/05/03 04:10:14;;;;;;;10.30;6.68;;;;;;;;;;5022481;28;20212;-60
2022/05/03 04:12:39;;;;;;;10.20;6.50;;;;;;;;;;5022539;28;20231;-60
2022/05/03 04:15:05;;;;;;;9.55;6.18;;;;;;;;;;5022156;28;20227;-60
2022/05/03 04:17:30;;;;;;;9.77;6.82;;;;;;;;;;5023253;28;20278;-60
2022/05/03 04:19:55;;;;;;;10.35;6.70;;;;;;;;;;5021808;28;20222;-60
2022/05/03 04:22:22;;;;;;;10.60;6.60;;;;;;;;;;5014671;28;20314;-59
2022/05/03 04:24:48;;;;;;;9.80;6.25;;;;;;;;;;5033561;28;20443;-60
2022/05/03 04:27:13;;;;;;;10.70;5.93;;;;;;;;;;5029138;28;20567;-60
2022/05/03 04:29:38;;;;;;;11.45;6.07;;;;;;;;;;5022096;28;20314;-60
2022/05/03 04:32:04;;;;;;;10.30;6.15;;;;;;;;;;5021995;28;20855;-60
2022/05/03 04:34:29;;;;;;;7.78;5.50;;;;;;;;;;5021562;28;20215;-60
2022/05/03 04:36:54;;;;;;;9.35;5.90;;;;;;;;;;5023094;28;20227;-60
2022/05/03 04:39:20;;;;;;;9.45;5.78;;;;;;;;;;5022142;28;20230;-59
2022/05/03 04:41:45;;;;;;;9.63;5.93;;;;;;;;;;5041384;28;20207;-60
2022/05/03 04:44:10;;;;;;;9.00;5.57;;;;;;;;;;5035795;28;20245;-60
2022/05/03 04:46:36;;;;;;;8.90;5.43;;;;;;;;;;5032830;28;20369;-60
2022/05/03 04:49:01;;;;;;;14.82;6.57;;;;;;;;;;5014731;28;20224;-59
2022/05/03 04:51:26;;;;;;;25.95;7.13;;;;;;;;;;5019975;28;20216;-60
2022/05/03 04:53:51;;;;;;;14.43;7.95;;;;;;;;;;5021744;28;20297;-60
2022/05/03 04:56:17;;;;;;;12.55;7.45;;;;;;;;;;5022043;28;20369;-60
2022/05/03 04:58:43;;;;;;;12.23;6.82;;;;;;;;;;5024845;28;20702;-60
2022/05/03 05:01:08;;;;;;;10.43;7.45;;;;;;;;;;5021113;28;20693;-60
2022/05/03 05:03:33;;;;;;;9.00;6.40;;;;;;;;;;5022397;28;20203;-59
2022/05/03 05:05:59;;;;;;;11.02;7.40;;;;;;;;;;5018850;28;20655;-60
2022/05/03 05:08:24;;;;;;;9.90;7.35;;;;;;;;;;5013665;28;20232;-60
2022/05/03 05:10:50;;;;;;;7.97;6.00;;;;;;;;;;5014368;28;20218;-60
2022/05/03 05:13:15;;;;;;;9.15;6.60;;;;;;;;;;5016584;28;20639;-60
2022/05/03 05:15:40;;;;;;;8.65;6.47;;;;;;;;;;5022243;28;20219;-60
2022/05/03 05:18:06;;;;;;;8.20;6.70;;;;;;;;;;5022059;28;20231;-60
2022/05/03 05:20:31;;;;;;;9.48;6.10;;;;;;;;;;5022575;28;20687;-60
2022/05/03 05:22:56;;;;;;;7.60;5.90;;;;;;;;;;5021379;28;20653;-60
2022/05/03 05:25:22;;;;;;;9.30;6.20;;;;;;;;;;5021844;28;20208;-60
2022/05/03 05:27:47;;;;;;;9.52;5.70;;;;;;;;;;5022473;28;20247;-60
2022/05/03 05:30:12;;;;;;;8.10;5.50;;;;;;;;;;5013276;28;20219;-60
2022/05/03 05:32:38;;;;;;;7.95;5.80;;;;;;;;;;5013773;28;20212;-60
2022/05/03 05:35:04;;;;;;;8.98;5.97;;;;;;;;;;5019553;28;20215;-61
2022/05/03 05:37:29;;;;;;;9.07;5.97;;;;;;;;;;5042236;28;20230;-60
2022/05/03 05:39:54;;;;;;;8.27;5.70;;;;;;;;;;5055013;28;20235;-61
2022/05/03 05:42:20;;;;;;;7.47;5.55;;;;;;;;;;5055164;28;20565;-61
2022/05/03 05:44:45;;;;;;;8.97;5.50;;;;;;;;;;5054058;28;20503;-61
2022/05/03 05:47:10;;;;;;;7.28;4.95;;;;;;;;;;5054319;28;20207;-60
2022/05/03 05:49:35;;;;;;;7.47;4.88;;;;;;;;;;5053989;28;20214;-60
2022/05/03 05:54:44;;;;;;;8.32;4.57;;;;;;;;;;5035317;28;20693;-60
2022/05/03 05:57:10;;;;;;;8.73;5.07;;;;;;;;;;5033269;28;20213;-60
2022/05/03 05:59:35;;;;;;;7.07;4.70;;;;;;;;;;5034042;28;20216;-59
2022/05/03 06:02:00;;;;;;;6.57;4.35;;;;;;;;;;5034419;28;20704;-60
2022/05/03 06:04:33;;;;;;;7.57;4.50;;;;;;;;;;5034014;28;20211;-60
2022/05/03 06:06:58;;;;;;;6.28;4.65;;;;;;;;;;5034917;28;20273;-59
2022/05/03 06:09:24;;;;;;;6.93;4.60;;;;;;;;;;5034766;28;20298;-60
2022/05/03 06:11:49;;;;;;;5.85;3.60;;;;;;;;;;5033224;28;20243;-60
2022/05/03 06:14:14;;;;;;;6.25;4.00;;;;;;;;;;5034203;28;20725;-60
2022/05/03 06:16:47;;;;;;;5.38;3.50;;;;;;;;;;5022468;28;20229;-59
2022/05/03 06:19:13;;;;;;;5.07;3.58;;;;;;;;;;5013439;28;20213;-59
2022/05/03 06:21:38;;;;;;;5.95;3.00;;;;;;;;;;5016863;28;20224;-59
2022/05/03 06:24:03;;;;;;;5.32;3.00;;;;;;;;;;5014488;28;20699;-60
2022/05/03 06:26:29;;;;;;;4.10;2.80;;;;;;;;;;5012951;28;20216;-59
2022/05/03 06:28:56;;;;;;;5.00;2.90;;;;;;;;;;5011354;28;20739;-61
2022/05/03 06:31:23;;;;;;;4.65;2.60;;;;;;;;;;5011500;28;20216;-60
2022/05/03 06:33:48;;;;;;;4.43;2.58;;;;;;;;;;5007331;28;20580;-60
2022/05/03 06:36:15;;;;;;;5.88;2.28;;;;;;;;;;5007692;28;20204;-60
2022/05/03 06:38:40;;;;;;;4.38;2.50;;;;;;;;;;5012393;28;20217;-60
2022/05/03 06:41:05;;;;;;;3.38;2.28;;;;;;;;;;5009624;28;20243;-60
2022/05/03 06:43:31;;;;;;;3.70;2.03;;;;;;;;;;5011563;28;20243;-60
2022/05/03 06:45:56;;;;;;;3.42;2.20;;;;;;;;;;5011948;28;20208;-60
2022/05/03 06:48:21;;;;;;;4.55;1.70;;;;;;;;;;5011805;28;20216;-60
2022/05/03 06:50:47;;;;;;;2.92;1.65;;;;;;;;;;5011307;28;20208;-60
2022/05/03 06:53:12;;;;;;;2.15;1.50;;;;;;;;;;5020365;28;20224;-60
2022/05/03 06:55:37;;;;;;;2.70;1.35;;;;;;;;;;5037234;28;20238;-59
2022/05/03 06:58:03;;;;;;;2.30;1.20;;;;;;;;;;5051216;28;20713;-60
2022/05/03 07:00:28;;;;;;;2.85;1.70;;;;;;;;;;5049277;28;20256;-60
2022/05/03 07:02:53;;;;;;;2.50;1.30;;;;;;;;;;5051454;28;20256;-59
2022/05/03 07:05:19;;;;;;;3.33;2.00;;;;;;;;;;5050888;28;20203;-60
2022/05/03 07:07:44;;;;;;;4.00;2.00;;;;;;;;;;5051283;28;20618;-60
2022/05/03 07:10:09;;;;;;;5.93;2.65;;;;;;;;;;5051125;28;20211;-60
2022/05/03 07:12:35;;;;;;;5.40;2.67;;;;;;;;;;5050309;28;20698;-60
2022/05/03 07:15:01;;;;;;;10.18;3.40;;;;;;;;;;5052700;28;20207;-60
2022/05/03 07:22:56;;;;;;;11.15;4.65;;;;;;;;;;5052513;28;20688;-60
2022/05/03 07:25:21;;;;;;;13.18;5.63;;;;;;;;;;5053055;28;20203;-60
2022/05/03 07:27:47;;;;;;;9.07;6.40;;;;;;;;;;5051764;28;20218;-61
2022/05/03 07:30:13;;;;;;;11.18;5.82;;;;;;;;;;5051101;28;20732;-60
2022/05/03 07:32:39;;;;;;;8.35;5.90;;;;;;;;;;5033836;28;20207;-60
2022/05/03 07:35:04;;;;;;;10.48;6.45;;;;;;;;;;5051537;28;20226;-60
2022/05/03 07:37:29;;;;;;;9.50;7.07;;;;;;;;;;5052480;28;20230;-60
2022/05/03 07:39:55;;;;;;;10.50;6.55;;;;;;;;;;5053018;28;20218;-60
2022/05/03 07:42:20;;;;;;;9.75;6.90;;;;;;;;;;5051892;28;20215;-60
2022/05/03 07:44:45;;;;;;;10.90;7.22;;;;;;;;;;5053160;28;20688;-61
2022/05/03 07:47:10;;;;;;;10.23;7.05;;;;;;;;;;5045334;28;20234;-60
2022/05/03 07:49:36;;;;;;;10.35;7.15;;;;;;;;;;5047574;28;20571;-60
2022/05/03 07:52:01;;;;;;;13.65;7.50;;;;;;;;;;5051878;28;20235;-60
2022/05/03 07:54:26;;;;;;;11.15;6.90;;;;;;;;;;5052671;28;20219;-60
2022/05/03 07:56:51;;;;;;;13.18;6.57;;;;;;;;;;5050796;28;20231;-61
2022/05/03 07:59:17;;;;;;;10.47;8.00;;;;;;;;;;5050961;28;20415;-63
2022/05/03 08:01:42;;;;;;;11.03;8.93;;;;;;;;;;5051371;28;20447;-60
2022/05/03 08:04:08;;;;;;;9.85;7.68;;;;;;;;;;5051222;28;20261;-60
2022/05/03 08:06:35;;;;;;;9.52;7.28;;;;;;;;;;5052412;28;20214;-61
2022/05/03 08:09:00;;;;;;;10.73;7.05;;;;;;;;;;5051684;28;20207;-61
2022/05/03 08:11:26;;;;;;;10.57;7.05;;;;;;;;;;5051759;28;20610;-60
2022/05/03 08:13:52;;;;;;;9.50;7.05;;;;;;;;;;5052723;28;20211;-60
2022/05/03 08:16:19;;;;;;;9.63;7.10;;;;;;;;;;5052345;28;20203;-62
2022/05/03 08:18:44;;;;;;;11.82;7.32;;;;;;;;;;5051895;28;20277;-62
2022/05/03 08:21:11;;;;;;;11.63;7.68;;;;;;;;;;5051774;28;20219;-62
2022/05/03 08:23:37;;;;;;;10.50;6.97;;;;;;;;;;5049967;28;20211;-60
2022/05/03 08:26:02;;;;;;;10.43;7.57;;;;;;;;;;5050829;28;20210;-61
2022/05/03 08:28:27;;;;;;;11.60;7.00;;;;;;;;;;5051987;28;20203;-62
2022/05/03 08:30:52;;;;;;;11.88;7.45;;;;;;;;;;5052239;28;20239;-63
2022/05/03 08:33:18;;;;;;;9.98;7.95;;;;;;;;;;5050964;28;20215;-63
2022/05/03 08:35:43;;;;;;;12.75;7.63;;;;;;;;;;5052360;28;20223;-61
2022/05/03 08:43:36;;;;;;;9.95;7.65;;;;;;;;;;5023760;28;20301;-62
2022/05/03 08:46:02;;;;;;;12.13;7.32;;;;;;;;;;5029619;28;20653;-60
2022/05/03 08:48:28;;;;;;;11.02;7.25;;;;;;;;;;5032923;28;20223;-61
2022/05/03 08:50:53;;;;;;;9.45;7.43;;;;;;;;;;5014159;28;20249;-61
2022/05/03 08:53:19;;;;;;;11.35;7.18;;;;;;;;;;5030756;28;20243;-61
2022/05/03 08:55:44;;;;;;;10.20;7.05;;;;;;;;;;5032546;28;20214;-61
2022/05/03 08:58:13;;;;;;;10.25;7.53;;;;;;;;;;5031828;28;20259;-62
2022/05/03 09:00:38;;;;;;;10.30;7.90;;;;;;;;;;5035001;28;20294;-61
2022/05/03 09:03:03;;;;;;;12.68;8.13;;;;;;;;;;5027102;28;20219;-62
2022/05/03 09:05:29;;;;;;;10.05;7.68;;;;;;;;;;5034318;28;20222;-61
2022/05/03 09:07:56;;;;;;;12.75;8.50;;;;;;;;;;5029845;28;20275;-61
2022/05/03 09:10:22;;;;;;;10.75;8.05;;;;;;;;;;5030657;28;20778;-61
2022/05/03 09:12:49;;;;;;;10.43;8.00;;;;;;;;;;5052351;28;20341;-61
2022/05/03 09:15:14;;;;;;;9.80;7.68;;;;;;;;;;5039477;28;20215;-61
2022/05/03 09:17:41;;;;;;;10.15;8.40;;;;;;;;;;5035675;28;20226;-61
2022/05/03 09:23:46;;;;;;;9.90;6.82;;;;;;;;;;5035530;28;20254;-61
2022/05/03 09:25:43;;;;;;;12.48;9.05;;;;;;;;;;5035405;28;20258;-62
2022/05/03 09:28:09;;;;;;;13.52;9.27;;;;;;;;;;5034496;28;20623;-61
2022/05/03 09:30:34;;;;;;;14.15;10.15;;;;;;;;;;5035632;28;20216;-61
2022/05/03 09:32:59;;;;;;;13.65;10.32;;;;;;;;;;5035355;28;20298;-61
2022/05/03 09:35:32;;;;;;;17.10;11.07;;;;;;;;;;5034566;28;20265;-61
2022/05/03 09:37:57;;;;;;;13.60;10.02;;;;;;;;;;5035740;28;20219;-61
2022/05/03 09:40:22;;;;;;;14.52;9.93;;;;;;;;;;5034995;28;20223;-61
2022/05/03 09:42:54;;;;;;;13.45;10.80;;;;;;;;;;5034470;28;20211;-60
2022/05/03 09:45:21;;;;;;;14.82;11.40;;;;;;;;;;5028660;28;20712;-61
2022/05/03 09:47:48;;;;;;;18.55;11.20;;;;;;;;;;5035065;28;20207;-62
2022/05/03 09:50:23;;;;;;;16.85;12.05;;;;;;;;;;5034277;28;20223;-61
2022/05/03 09:52:49;;;;;;;16.92;11.57;;;;;;;;;;5037096;28;20258;-61
2022/05/03 09:55:14;;;;;;;15.98;11.68;;;;;;;;;;5034705;28;20251;-61
2022/05/03 09:57:40;;;;;;;14.07;10.68;;;;;;;;;;5033071;28;20246;-62
2022/05/03 10:00:06;;;;;;;14.27;9.77;;;;;;;;;;5034068;28;20215;-61
2022/05/03 10:02:32;;;;;;;13.32;8.88;;;;;;;;;;5033290;28;20212;-60
2022/05/03 10:04:57;;;;;;;12.30;9.85;;;;;;;;;;5050350;28;20230;-61
2022/05/03 10:07:23;;;;;;;12.50;9.88;;;;;;;;;;5054450;28;20214;-61
2022/05/03 10:09:49;;;;;;;13.05;8.52;;;;;;;;;;5053783;28;20280;-61
2022/05/03 10:12:15;;;;;;;14.07;9.02;;;;;;;;;;5052521;28;20210;-61
2022/05/03 10:14:41;;;;;;;11.45;8.07;;;;;;;;;;5034383;28;20215;-61
2022/05/03 10:20:36;;;;;;;11.65;8.55;;;;;;;;;;5033354;28;20639;-61
2022/05/03 10:23:01;;;;;;;15.30;11.23;;;;;;;;;;5033131;28;20247;-61
2022/05/03 10:25:28;;;;;;;14.55;10.45;;;;;;;;;;5052949;28;20234;-62
2022/05/03 10:27:55;;;;;;;14.07;10.27;;;;;;;;;;5052854;28;20223;-61
2022/05/03 10:30:22;;;;;;;12.70;9.13;;;;;;;;;;5054027;28;20219;-61
2022/05/03 10:33:06;;;;;;;14.30;10.93;;;;;;;;;;5052863;28;20571;-61
2022/05/03 10:35:33;;;;;;;14.00;9.85;;;;;;;;;;5051733;28;20281;-62
2022/05/03 10:37:59;;;;;;;12.77;10.15;;;;;;;;;;5050017;28;20276;-62
2022/05/03 10:40:29;;;;;;;16.17;11.93;;;;;;;;;;5051308;28;20219;-62
2022/05/03 10:43:04;;;;;;;14.02;10.00;;;;;;;;;;5051965;28;20222;-61
2022/05/03 10:45:29;;;;;;;12.40;9.10;;;;;;;;;;5049215;28;20214;-61
2022/05/03 10:47:54;;;;;;;11.63;8.43;;;;;;;;;;5051639;28;20203;-61
2022/05/03 10:50:26;;;;;;;11.85;8.35;;;;;;;;;;5051327;28;20226;-61
2022/05/03 10:52:55;;;;;;;13.70;9.52;;;;;;;;;;5050093;28;20636;-61
2022/05/03 10:55:21;;;;;;;13.13;10.15;;;;;;;;;;5047433;28;20219;-61
2022/05/03 10:58:05;;;;;;;12.07;9.35;;;;;;;;;;5051495;28;20264;-61
2022/05/03 11:00:49;;;;;;;13.77;10.68;;;;;;;;;;5048316;28;20229;-62
2022/05/03 11:03:18;;;;;;;11.43;8.82;;;;;;;;;;5051024;28;20207;-62
2022/05/03 11:05:43;;;;;;;12.65;9.38;;;;;;;;;;5051748;28;20729;-62
2022/05/03 11:08:16;;;;;;;12.43;8.98;;;;;;;;;;5050017;28;20272;-61
2022/05/03 11:10:41;;;;;;;14.52;9.40;;;;;;;;;;5050960;28;20686;-62
2022/05/03 11:13:27;;;;;;;12.68;9.45;;;;;;;;;;5050217;28;20235;-62
2022/05/03 11:16:13;;;;;;;15.93;10.45;;;;;;;;;;5051068;28;20218;-61
2022/05/03 11:18:38;;;;;;;13.30;10.30;;;;;;;;;;5048631;28;20219;-61
2022/05/03 11:21:16;;;;;;;15.38;10.60;;;;;;;;;;5049695;28;20662;-61
2022/05/03 11:23:51;;;;;;;17.30;10.55;;;;;;;;;;5049189;28;20563;-60
2022/05/03 11:26:17;;;;;;;11.73;9.52;;;;;;;;;;5050232;28;20336;-61
2022/05/03 11:28:44;;;;;;;15.05;9.25;;;;;;;;;;5030627;28;20231;-61
2022/05/03 11:31:09;;;;;;;13.65;9.15;;;;;;;;;;5049283;28;20302;-62
2022/05/03 11:33:52;;;;;;;11.32;7.82;;;;;;;;;;5051235;28;20354;-61
2022/05/03 11:36:19;;;;;;;10.38;7.50;;;;;;;;;;5049641;28;20568;-61
2022/05/03 11:38:47;;;;;;;9.93;7.25;;;;;;;;;;5050975;28;20580;-61
2022/05/03 11:41:12;;;;;;;11.02;7.35;;;;;;;;;;5048995;28;20682;-61
2022/05/03 11:43:37;;;;;;;9.48;6.70;;;;;;;;;;5050900;28;20222;-61
2022/05/03 11:46:03;;;;;;;11.55;8.13;;;;;;;;;;5049912;28;20223;-61
2022/05/03 11:48:28;;;;;;;10.55;8.10;;;;;;;;;;5049308;28;20226;-61
2022/05/03 11:56:27;;;;;;;11.98;8.18;;;;;;;;;;5049192;28;20718;-61
2022/05/03 11:58:52;;;;;;;10.43;7.93;;;;;;;;;;5050533;28;20314;-62
2022/05/03 12:01:17;;;;;;;10.07;7.13;;;;;;;;;;5049653;28;20308;-61
2022/05/03 12:03:44;;;;;;;9.93;7.22;;;;;;;;;;5049802;28;20226;-61
2022/05/03 12:06:09;;;;;;;9.63;6.90;;;;;;;;;;5049714;28;20207;-61
2022/05/03 12:08:35;;;;;;;9.90;6.60;;;;;;;;;;5050422;28;20202;-61
2022/05/03 12:11:00;;;;;;;9.40;6.80;;;;;;;;;;5049649;28;20606;-61
2022/05/03 12:13:26;;;;;;;9.75;6.90;;;;;;;;;;5049793;28;20635;-61
2022/05/03 12:15:57;;;;;;;9.10;6.70;;;;;;;;;;5050002;28;20203;-61
2022/05/03 12:18:30;;;;;;;9.18;6.72;;;;;;;;;;5049272;28;20219;-61
2022/05/03 12:20:57;;;;;;;9.93;5.78;;;;;;;;;;5032457;28;20215;-61
2022/05/03 12:23:37;;;;;;;8.10;6.10;;;;;;;;;;5049159;28;20259;-61
2022/05/03 12:26:11;;;;;;;10.23;6.90;;;;;;;;;;5049735;28;20210;-61
2022/05/03 12:28:38;;;;;;;9.48;6.95;;;;;;;;;;5049302;28;20305;-61
2022/05/03 12:31:04;;;;;;;11.88;7.22;;;;;;;;;;5048581;28;20299;-61
2022/05/03 12:33:30;;;;;;;11.30;6.82;;;;;;;;;;5049889;28;20290;-61
2022/05/03 12:35:55;;;;;;;10.35;7.68;;;;;;;;;;5049660;28;20207;-61
2022/05/03 12:38:21;;;;;;;9.43;6.97;;;;;;;;;;5048634;28;20218;-62
2022/05/03 12:40:48;;;;;;;9.60;6.50;;;;;;;;;;5049648;28;20203;-61
2022/05/03 12:43:15;;;;;;;9.15;6.57;;;;;;;;;;5049390;28;20215;-61
2022/05/03 12:45:40;;;;;;;9.35;6.70;;;;;;;;;;5029250;28;20231;-61
2022/05/03 12:48:06;;;;;;;10.77;6.90;;;;;;;;;;5049995;28;20238;-61
2022/05/03 12:50:31;;;;;;;9.38;6.88;;;;;;;;;;5054584;28;20557;-62
2022/05/03 12:52:57;;;;;;;9.02;6.40;;;;;;;;;;5035327;28;20254;-59
2022/05/03 12:55:23;;;;;;;10.35;6.60;;;;;;;;;;5050067;28;20207;-59
2022/05/03 13:00:33;;;;;;;8.27;6.00;;;;;;;;;;5052467;28;20246;-59
2022/05/03 13:03:01;;;;;;;10.20;6.03;;;;;;;;;;5053828;28;20632;-59
2022/05/03 13:05:26;;;;;;;22.42;14.20;;;;;;;;;;5053164;28;20215;-58
2022/05/03 13:07:51;;;;;;;33.10;18.15;;;;;;;;;;5053123;28;20264;-59
2022/05/03 13:10:17;;;;;;;30.30;18.48;;;;;;;;;;5053404;28;20195;-59
2022/05/03 13:12:42;;;;;;;32.45;20.23;;;;;;;;;;5051514;28;20211;-59
2022/05/03 13:15:07;;;;;;;34.25;21.30;;;;;;;;;;5053189;28;20210;-59
2022/05/03 13:17:33;;;;;;;34.13;20.65;;;;;;;;;;5053130;28;20258;-59
2022/05/03 13:19:58;;;;;;;38.25;21.45;;;;;;;;;;5052545;28;20214;-59
2022/05/03 13:22:23;;;;;;;33.53;19.92;;;;;;;;;;5052732;28;20643;-59
2022/05/03 13:24:48;;;;;;;46.35;20.95;;;;;;;;;;5052891;28;20207;-59
2022/05/03 13:27:14;;;;;;;35.40;20.77;;;;;;;;;;5052759;28;20211;-59
2022/05/03 13:29:39;;;;;;;36.60;21.23;;;;;;;;;;5052932;28;20718;-59
2022/05/03 13:32:06;;;;;;;34.55;20.98;;;;;;;;;;5052695;28;20212;-59
2022/05/03 13:34:31;;;;;;;37.58;21.80;;;;;;;;;;5052612;28;20203;-59
2022/05/03 13:42:24;;;;;;;39.92;20.38;;;;;;;;;;5052006;28;20249;-59
2022/05/03 13:44:49;;;;;;;32.65;20.15;;;;;;;;;;5052528;28;20226;-59
2022/05/03 13:47:14;;;;;;;32.50;18.60;;;;;;;;;;5034661;28;20207;-59
2022/05/03 13:49:40;;;;;;;33.38;19.13;;;;;;;;;;5051918;28;20618;-59
2022/05/03 13:52:06;;;;;;;33.70;18.88;;;;;;;;;;5052291;28;20214;-59
2022/05/03 13:54:31;;;;;;;33.15;19.00;;;;;;;;;;5052630;28;20219;-59
2022/05/03 13:56:57;;;;;;;37.33;19.20;;;;;;;;;;5033499;28;20230;-59
2022/05/03 13:59:22;;;;;;;31.75;18.05;;;;;;;;;;5051620;28;20211;-59
2022/05/03 14:01:48;;;;;;;29.23;17.63;;;;;;;;;;5052517;28;20286;-59
2022/05/03 14:04:13;;;;;;;27.92;18.13;;;;;;;;;;5034383;28;20206;-59
2022/05/03 14:06:39;;;;;;;28.15;17.55;;;;;;;;;;5052493;28;20260;-59
2022/05/03 14:09:04;;;;;;;30.30;18.10;;;;;;;;;;5051458;28;20311;-59
2022/05/03 14:11:30;;;;;;;31.45;18.17;;;;;;;;;;5052832;28;20647;-59
2022/05/03 14:13:56;;;;;;;29.05;17.05;;;;;;;;;;5052435;28;20215;-59
2022/05/03 14:16:21;;;;;;;30.30;17.88;;;;;;;;;;5033573;28;20207;-59
2022/05/03 14:18:46;;;;;;;30.02;17.60;;;;;;;;;;5052237;28;20219;-59
2022/05/03 14:21:12;;;;;;;31.25;17.30;;;;;;;;;;5051855;28;20230;-59
2022/05/03 14:23:38;;;;;;;27.17;17.45;;;;;;;;;;5051659;28;20310;-59
2022/05/03 14:26:04;;;;;;;28.65;17.33;;;;;;;;;;5052173;28;20230;-59
2022/05/03 14:28:32;;;;;;;27.45;17.10;;;;;;;;;;5050137;28;20219;-59
2022/05/03 14:30:57;;;;;;;31.50;17.92;;;;;;;;;;5051247;28;20215;-59
2022/05/03 14:33:22;;;;;;;28.05;17.45;;;;;;;;;;5051480;28;20215;-59
2022/05/03 14:35:47;;;;;;;29.83;17.13;;;;;;;;;;5052003;28;20731;-59
2022/05/03 14:38:13;;;;;;;28.55;17.02;;;;;;;;;;5050949;28;20223;-59
2022/05/03 14:40:38;;;;;;;29.02;17.02;;;;;;;;;;5051864;28;21972;-59
2022/05/03 14:43:06;;;;;;;27.50;16.80;;;;;;;;;;5051653;28;20637;-59
2022/05/03 14:45:32;;;;;;;25.08;15.57;;;;;;;;;;5048964;28;20268;-59
2022/05/03 14:47:59;;;;;;;25.13;16.52;;;;;;;;;;5051876;28;20211;-59
2022/05/03 14:50:24;;;;;;;25.40;16.55;;;;;;;;;;5050454;28;20218;-58
2022/05/03 14:52:49;;;;;;;30.52;16.15;;;;;;;;;;5046152;28;20215;-59
2022/05/03 14:55:15;;;;;;;28.85;15.07;;;;;;;;;;5051509;28;20711;-59
2022/05/03 15:02:52;;;;;;;26.73;15.93;;;;;;;;;;5048541;28;20323;-58
2022/05/03 15:03:25;;;;;;;28.88;15.45;;;;;;;;;;5031676;28;20207;-59
2022/05/03 15:05:51;;;;;;;27.08;16.77;;;;;;;;;;5042364;28;20218;-59
2022/05/03 15:08:16;;;;;;;25.90;15.60;;;;;;;;;;5045123;28;20264;-59
2022/05/03 15:10:41;;;;;;;29.50;15.57;;;;;;;;;;5048839;28;20214;-59
2022/05/03 15:13:07;;;;;;;29.65;15.85;;;;;;;;;;5052165;28;20215;-59